WJA504 CYYJ-CYEG
Flight info
| Callsign | WJA504 |
|---|---|
| Flight time | 1h 15m |
| Altitude | 37000 |
| Route | SQURL DCT DAPED DCT PETLI DCT ROMRA Q949 ELLKS ELLKS3 |
| Aircraft | B738/M-SDE2E3FGHIRWXY/LB1 |
Departure
| Time | 2026-05-08 19:27 |
|---|---|
| Airport | Victoria International Airport (CYYJ) |
Arrival
| Time | 2026-05-08 20:42 |
|---|---|
| Airport | Edmonton International Airport (CYEG) |
| Time | Latitude | Longitude | Altitude | Speed | Heading |
|---|---|---|---|---|---|
| 2026-05-08 19:02 | 48.64119 | -123.43175 | 75 ft | 0 kts | 189° |
| 2026-05-08 19:16 | 48.64129 | -123.43172 | 75 ft | 2 kts | 189° |
| 2026-05-08 19:16 | 48.64144 | -123.43169 | 74 ft | 2 kts | 189° |
| 2026-05-08 19:17 | 48.64159 | -123.43165 | 74 ft | 2 kts | 189° |
| 2026-05-08 19:17 | 48.64171 | -123.43162 | 74 ft | 0 kts | 189° |
| 2026-05-08 19:17 | 48.64183 | -123.43160 | 74 ft | 2 kts | 172° |
| 2026-05-08 19:17 | 48.64197 | -123.43167 | 74 ft | 2 kts | 150° |
| 2026-05-08 19:18 | 48.64209 | -123.43181 | 74 ft | 2 kts | 128° |
| 2026-05-08 19:18 | 48.64216 | -123.43201 | 73 ft | 2 kts | 106° |
| 2026-05-08 19:18 | 48.64218 | -123.43223 | 73 ft | 2 kts | 84° |
| 2026-05-08 19:18 | 48.64214 | -123.43243 | 73 ft | 0 kts | 64° |
| 2026-05-08 19:19 | 48.64211 | -123.43251 | 73 ft | 1 kts | 61° |
| 2026-05-08 19:19 | 48.64211 | -123.43252 | 73 ft | 0 kts | 61° |
| 2026-05-08 19:21 | 48.64211 | -123.43251 | 73 ft | 0 kts | 61° |
| 2026-05-08 19:22 | 48.64218 | -123.43232 | 73 ft | 3 kts | 61° |
| 2026-05-08 19:22 | 48.64242 | -123.43168 | 74 ft | 9 kts | 63° |
| 2026-05-08 19:22 | 48.64252 | -123.43048 | 74 ft | 18 kts | 98° |
| 2026-05-08 19:22 | 48.64202 | -123.42853 | 71 ft | 21 kts | 139° |
| 2026-05-08 19:23 | 48.64140 | -123.42680 | 67 ft | 20 kts | 100° |
| 2026-05-08 19:23 | 48.64125 | -123.42540 | 67 ft | 14 kts | 99° |
| 2026-05-08 19:23 | 48.64209 | -123.42409 | 65 ft | 23 kts | 12° |
| 2026-05-08 19:23 | 48.64361 | -123.42361 | 68 ft | 20 kts | 16° |
| 2026-05-08 19:24 | 48.64489 | -123.42308 | 73 ft | 18 kts | 16° |
| 2026-05-08 19:24 | 48.64619 | -123.42252 | 76 ft | 18 kts | 17° |
| 2026-05-08 19:24 | 48.64711 | -123.42129 | 77 ft | 17 kts | 80° |
| 2026-05-08 19:24 | 48.64679 | -123.41930 | 77 ft | 22 kts | 107° |
| 2026-05-08 19:25 | 48.64637 | -123.41698 | 80 ft | 21 kts | 104° |
| 2026-05-08 19:25 | 48.64597 | -123.41482 | 80 ft | 20 kts | 106° |
| 2026-05-08 19:25 | 48.64565 | -123.41310 | 78 ft | 8 kts | 93° |
| 2026-05-08 19:25 | 48.64566 | -123.41296 | 77 ft | 0 kts | 81° |
| 2026-05-08 19:26 | 48.64566 | -123.41294 | 77 ft | 2 kts | 81° |
| 2026-05-08 19:26 | 48.64614 | -123.41220 | 74 ft | 15 kts | 21° |
| 2026-05-08 19:26 | 48.64668 | -123.41251 | 75 ft | 8 kts | 290° |
| 2026-05-08 19:26 | 48.64671 | -123.41267 | 76 ft | 0 kts | 287° |
| 2026-05-08 19:27 | 48.64700 | -123.41423 | 79 ft | 49 kts | 286° |
| 2026-05-08 19:27 | 48.64883 | -123.42383 | 78 ft | 135 kts | 286° |
| 2026-05-08 19:27 | 48.65184 | -123.43974 | 544 ft | 170 kts | 285° |
| 2026-05-08 19:27 | 48.65505 | -123.45677 | 1488 ft | 176 kts | 284° |
| 2026-05-08 19:28 | 48.65855 | -123.47465 | 1752 ft | 184 kts | 285° |
| 2026-05-08 19:28 | 48.66240 | -123.49441 | 2204 ft | 208 kts | 285° |
| 2026-05-08 19:28 | 48.66663 | -123.51628 | 2862 ft | 225 kts | 285° |
| 2026-05-08 19:28 | 48.67125 | -123.53934 | 3568 ft | 241 kts | 289° |
| 2026-05-08 19:29 | 48.67905 | -123.56225 | 4312 ft | 257 kts | 307° |
| 2026-05-08 19:29 | 48.69287 | -123.58025 | 5182 ft | 268 kts | 329° |
| 2026-05-08 19:29 | 48.70981 | -123.59140 | 6182 ft | 272 kts | 341° |
| 2026-05-08 19:29 | 48.72837 | -123.59567 | 7121 ft | 279 kts | 1° |
| 2026-05-08 19:30 | 48.74705 | -123.58855 | 8035 ft | 287 kts | 24° |
| 2026-05-08 19:30 | 48.76386 | -123.57182 | 8949 ft | 293 kts | 40° |
| 2026-05-08 19:30 | 48.77709 | -123.54848 | 9850 ft | 299 kts | 60° |
| 2026-05-08 19:30 | 48.78350 | -123.51857 | 10594 ft | 308 kts | 85° |
| 2026-05-08 19:31 | 48.78188 | -123.48583 | 11097 ft | 323 kts | 106° |
| 2026-05-08 19:31 | 48.77292 | -123.45370 | 11600 ft | 336 kts | 126° |
| 2026-05-08 19:31 | 48.75870 | -123.42570 | 12285 ft | 344 kts | 129° |
| 2026-05-08 19:31 | 48.74780 | -123.39298 | 13013 ft | 356 kts | 106° |
| 2026-05-08 19:32 | 48.74672 | -123.35586 | 13812 ft | 363 kts | 82° |
| 2026-05-08 19:32 | 48.75332 | -123.31900 | 14581 ft | 367 kts | 69° |
| 2026-05-08 19:32 | 48.76366 | -123.28312 | 15312 ft | 373 kts | 64° |
| 2026-05-08 19:32 | 48.77486 | -123.24747 | 16045 ft | 378 kts | 65° |
| 2026-05-08 19:33 | 48.78574 | -123.21140 | 16762 ft | 383 kts | 66° |
| 2026-05-08 19:33 | 48.79620 | -123.17400 | 17469 ft | 389 kts | 68° |
| 2026-05-08 19:33 | 48.80616 | -123.13595 | 18122 ft | 394 kts | 70° |
| 2026-05-08 19:33 | 48.81598 | -123.09695 | 18857 ft | 396 kts | 70° |
| 2026-05-08 19:34 | 48.82559 | -123.05808 | 19583 ft | 399 kts | 71° |
| 2026-05-08 19:34 | 48.83528 | -123.01865 | 20246 ft | 403 kts | 71° |
| 2026-05-08 19:34 | 48.84501 | -122.97915 | 20897 ft | 405 kts | 71° |
| 2026-05-08 19:34 | 48.85492 | -122.93892 | 21547 ft | 408 kts | 71° |
| 2026-05-08 19:35 | 48.86487 | -122.89857 | 22133 ft | 412 kts | 71° |
| 2026-05-08 19:35 | 48.87498 | -122.85754 | 22782 ft | 414 kts | 71° |
| 2026-05-08 19:35 | 48.88493 | -122.81706 | 23358 ft | 417 kts | 72° |
| 2026-05-08 19:35 | 48.89514 | -122.77545 | 23903 ft | 421 kts | 72° |
| 2026-05-08 19:36 | 48.90528 | -122.73397 | 24434 ft | 424 kts | 72° |
| 2026-05-08 19:36 | 48.91545 | -122.69241 | 24973 ft | 427 kts | 72° |
| 2026-05-08 19:36 | 48.92587 | -122.64977 | 25525 ft | 429 kts | 72° |
| 2026-05-08 19:36 | 48.93611 | -122.60776 | 26086 ft | 430 kts | 72° |
| 2026-05-08 19:37 | 48.94653 | -122.56484 | 26574 ft | 434 kts | 72° |
| 2026-05-08 19:37 | 48.95677 | -122.52193 | 27063 ft | 436 kts | 73° |
| 2026-05-08 19:37 | 48.96685 | -122.47865 | 27535 ft | 439 kts | 73° |
| 2026-05-08 19:37 | 48.97693 | -122.43488 | 28018 ft | 441 kts | 73° |
| 2026-05-08 19:38 | 48.98707 | -122.39048 | 28473 ft | 444 kts | 73° |
| 2026-05-08 19:38 | 48.99720 | -122.34605 | 28938 ft | 446 kts | 75° |
| 2026-05-08 19:38 | 49.00727 | -122.30188 | 29425 ft | 447 kts | 75° |
| 2026-05-08 19:38 | 49.01736 | -122.25754 | 29819 ft | 450 kts | 75° |
| 2026-05-08 19:39 | 49.02764 | -122.21240 | 30276 ft | 452 kts | 75° |
| 2026-05-08 19:39 | 49.03793 | -122.16713 | 30673 ft | 454 kts | 75° |
| 2026-05-08 19:39 | 49.04832 | -122.12138 | 31042 ft | 458 kts | 75° |
| 2026-05-08 19:39 | 49.05872 | -122.07552 | 31451 ft | 460 kts | 75° |
| 2026-05-08 19:40 | 49.06923 | -122.02908 | 31799 ft | 464 kts | 75° |
| 2026-05-08 19:40 | 49.07965 | -121.98292 | 32113 ft | 468 kts | 74° |
| 2026-05-08 19:40 | 49.09026 | -121.93587 | 32513 ft | 471 kts | 75° |
| 2026-05-08 19:40 | 49.10096 | -121.88832 | 32935 ft | 472 kts | 75° |
| 2026-05-08 19:41 | 49.11161 | -121.84089 | 33270 ft | 475 kts | 75° |
| 2026-05-08 19:41 | 49.12232 | -121.79312 | 33713 ft | 476 kts | 75° |
| 2026-05-08 19:41 | 49.13307 | -121.74511 | 34218 ft | 474 kts | 75° |
| 2026-05-08 19:41 | 49.14300 | -121.69729 | 34633 ft | 472 kts | 77° |
| 2026-05-08 19:42 | 49.15078 | -121.64885 | 35028 ft | 469 kts | 81° |
| 2026-05-08 19:42 | 49.15655 | -121.60039 | 35325 ft | 470 kts | 84° |
| 2026-05-08 19:42 | 49.16125 | -121.55135 | 35589 ft | 471 kts | 85° |
| 2026-05-08 19:42 | 49.16552 | -121.50164 | 35832 ft | 474 kts | 86° |
| 2026-05-08 19:43 | 49.16962 | -121.45181 | 36251 ft | 473 kts | 86° |
| 2026-05-08 19:43 | 49.17374 | -121.40166 | 36756 ft | 471 kts | 85° |
| 2026-05-08 19:43 | 49.17780 | -121.35246 | 37055 ft | 472 kts | 85° |
| 2026-05-08 19:44 | 49.18616 | -121.25254 | 37050 ft | 474 kts | 86° |
| 2026-05-08 19:44 | 49.19464 | -121.15310 | 37054 ft | 474 kts | 86° |
| 2026-05-08 19:45 | 49.20320 | -121.05337 | 37033 ft | 473 kts | 86° |
| 2026-05-08 19:45 | 49.21164 | -120.95404 | 37005 ft | 474 kts | 86° |
| 2026-05-08 19:46 | 49.22006 | -120.85373 | 37024 ft | 474 kts | 86° |
| 2026-05-08 19:46 | 49.23249 | -120.70355 | 37033 ft | 474 kts | 86° |
| 2026-05-08 19:47 | 49.24063 | -120.60413 | 37040 ft | 474 kts | 86° |
| 2026-05-08 19:47 | 49.24873 | -120.50404 | 37040 ft | 473 kts | 86° |
| 2026-05-08 19:48 | 49.25672 | -120.40388 | 37045 ft | 475 kts | 86° |
| 2026-05-08 19:48 | 49.26465 | -120.30381 | 37040 ft | 476 kts | 87° |
| 2026-05-08 19:49 | 49.27245 | -120.20409 | 37045 ft | 475 kts | 86° |
| 2026-05-08 19:49 | 49.28024 | -120.10349 | 37050 ft | 477 kts | 86° |
| 2026-05-08 19:50 | 49.28801 | -120.00253 | 37033 ft | 476 kts | 86° |
| 2026-05-08 19:50 | 49.29554 | -119.90243 | 37011 ft | 477 kts | 86° |
| 2026-05-08 19:51 | 49.30306 | -119.80176 | 37014 ft | 478 kts | 86° |
| 2026-05-08 19:51 | 49.31805 | -119.70192 | 36997 ft | 485 kts | 69° |
| 2026-05-08 19:52 | 49.33414 | -119.65689 | 36992 ft | 486 kts | 56° |
| 2026-05-08 19:52 | 49.35557 | -119.61741 | 36987 ft | 489 kts | 46° |
| 2026-05-08 19:52 | 49.40785 | -119.55183 | 36975 ft | 489 kts | 30° |
| 2026-05-08 19:53 | 49.46840 | -119.50559 | 36963 ft | 486 kts | 21° |
| 2026-05-08 19:53 | 49.53056 | -119.46640 | 36971 ft | 486 kts | 20° |
| 2026-05-08 19:54 | 49.59299 | -119.42692 | 36991 ft | 486 kts | 20° |
| 2026-05-08 19:54 | 49.65480 | -119.38617 | 37012 ft | 484 kts | 21° |
| 2026-05-08 19:55 | 49.71676 | -119.34425 | 37012 ft | 485 kts | 22° |
| 2026-05-08 19:55 | 49.77809 | -119.30217 | 37013 ft | 487 kts | 22° |
| 2026-05-08 19:56 | 49.83978 | -119.25952 | 37016 ft | 485 kts | 22° |
| 2026-05-08 19:56 | 49.90172 | -119.21665 | 37013 ft | 485 kts | 22° |
| 2026-05-08 19:57 | 49.96323 | -119.17400 | 37009 ft | 487 kts | 22° |
| 2026-05-08 19:57 | 50.02502 | -119.13094 | 37002 ft | 487 kts | 22° |
| 2026-05-08 19:58 | 50.08676 | -119.08785 | 36997 ft | 488 kts | 22° |
| 2026-05-08 19:58 | 50.14820 | -119.04478 | 36994 ft | 485 kts | 22° |
| 2026-05-08 19:59 | 50.20962 | -119.00164 | 36986 ft | 486 kts | 22° |
| 2026-05-08 19:59 | 50.27103 | -118.95849 | 36968 ft | 485 kts | 21° |
| 2026-05-08 20:00 | 50.33276 | -118.91494 | 36955 ft | 484 kts | 21° |
| 2026-05-08 20:00 | 50.39381 | -118.87167 | 36950 ft | 484 kts | 21° |
| 2026-05-08 20:01 | 50.45486 | -118.82819 | 36938 ft | 485 kts | 21° |
| 2026-05-08 20:01 | 50.51638 | -118.78434 | 36917 ft | 483 kts | 21° |
| 2026-05-08 20:02 | 50.57749 | -118.74068 | 36927 ft | 483 kts | 21° |
| 2026-05-08 20:02 | 50.63856 | -118.69682 | 36946 ft | 481 kts | 21° |
| 2026-05-08 20:03 | 50.69969 | -118.65294 | 36960 ft | 482 kts | 21° |
| 2026-05-08 20:03 | 50.76053 | -118.60915 | 36967 ft | 481 kts | 21° |
| 2026-05-08 20:04 | 50.82109 | -118.56546 | 36972 ft | 480 kts | 21° |
| 2026-05-08 20:04 | 50.88137 | -118.52177 | 36975 ft | 477 kts | 20° |
| 2026-05-08 20:05 | 50.94194 | -118.47780 | 36974 ft | 481 kts | 20° |
| 2026-05-08 20:05 | 51.00229 | -118.43373 | 36969 ft | 477 kts | 21° |
| 2026-05-08 20:06 | 51.06237 | -118.38965 | 36960 ft | 477 kts | 20° |
| 2026-05-08 20:06 | 51.12267 | -118.34531 | 36960 ft | 479 kts | 21° |
| 2026-05-08 20:07 | 51.18247 | -118.30138 | 36960 ft | 477 kts | 21° |
| 2026-05-08 20:07 | 51.24301 | -118.25696 | 36948 ft | 478 kts | 21° |
| 2026-05-08 20:08 | 51.30331 | -118.21250 | 36965 ft | 476 kts | 21° |
| 2026-05-08 20:08 | 51.36322 | -118.16815 | 36987 ft | 476 kts | 21° |
| 2026-05-08 20:09 | 51.42298 | -118.12367 | 36991 ft | 476 kts | 20° |
| 2026-05-08 20:09 | 51.48277 | -118.07893 | 37149 ft | 478 kts | 21° |
| 2026-05-08 20:10 | 51.51278 | -118.05654 | 37005 ft | 473 kts | 21° |
| 2026-05-08 20:10 | 51.54218 | -118.03455 | 37003 ft | 471 kts | 21° |
| 2026-05-08 20:10 | 51.60157 | -117.99010 | 36999 ft | 473 kts | 21° |
| 2026-05-08 20:11 | 51.66114 | -117.94533 | 37007 ft | 473 kts | 21° |
| 2026-05-08 20:11 | 51.72047 | -117.90051 | 37009 ft | 469 kts | 21° |
| 2026-05-08 20:12 | 51.77928 | -117.85601 | 37017 ft | 471 kts | 21° |
| 2026-05-08 20:12 | 51.83828 | -117.81129 | 37013 ft | 471 kts | 20° |
| 2026-05-08 20:13 | 51.89767 | -117.76613 | 37011 ft | 471 kts | 21° |
| 2026-05-08 20:13 | 51.95643 | -117.72134 | 37007 ft | 472 kts | 20° |
| 2026-05-08 20:14 | 52.01525 | -117.67472 | 37005 ft | 472 kts | 25° |
| 2026-05-08 20:14 | 52.06634 | -117.60788 | 37008 ft | 482 kts | 46° |
| 2026-05-08 20:15 | 52.10676 | -117.52053 | 37000 ft | 483 kts | 52° |
| 2026-05-08 20:15 | 52.14478 | -117.43103 | 36998 ft | 484 kts | 52° |
| 2026-05-08 20:16 | 52.18301 | -117.34077 | 36997 ft | 484 kts | 53° |
| 2026-05-08 20:16 | 52.22125 | -117.25088 | 36992 ft | 485 kts | 52° |
| 2026-05-08 20:17 | 52.25964 | -117.16097 | 36992 ft | 484 kts | 52° |
| 2026-05-08 20:17 | 52.29802 | -117.07124 | 36994 ft | 484 kts | 52° |
| 2026-05-08 20:18 | 52.33622 | -116.98185 | 36988 ft | 484 kts | 51° |
| 2026-05-08 20:18 | 52.37452 | -116.89191 | 36987 ft | 482 kts | 52° |
| 2026-05-08 20:19 | 52.41262 | -116.80185 | 36986 ft | 482 kts | 51° |
| 2026-05-08 20:19 | 52.45071 | -116.71213 | 36988 ft | 481 kts | 51° |
| 2026-05-08 20:20 | 52.48881 | -116.62216 | 36984 ft | 482 kts | 51° |
| 2026-05-08 20:20 | 52.52652 | -116.53259 | 36985 ft | 481 kts | 51° |
| 2026-05-08 20:21 | 52.56450 | -116.44193 | 36989 ft | 482 kts | 51° |
| 2026-05-08 20:21 | 52.60225 | -116.35140 | 36981 ft | 480 kts | 51° |
| 2026-05-08 20:22 | 52.63991 | -116.26077 | 36976 ft | 481 kts | 51° |
| 2026-05-08 20:22 | 52.67756 | -116.16999 | 36816 ft | 478 kts | 51° |
| 2026-05-08 20:23 | 52.69611 | -116.12505 | 36411 ft | 472 kts | 51° |
| 2026-05-08 20:23 | 52.71450 | -116.08041 | 35865 ft | 469 kts | 51° |
| 2026-05-08 20:23 | 52.73270 | -116.03617 | 35188 ft | 470 kts | 51° |
| 2026-05-08 20:23 | 52.75106 | -115.99158 | 34461 ft | 470 kts | 51° |
| 2026-05-08 20:24 | 52.76923 | -115.94733 | 33747 ft | 470 kts | 51° |
| 2026-05-08 20:24 | 52.78755 | -115.90261 | 33001 ft | 470 kts | 51° |
| 2026-05-08 20:24 | 52.80588 | -115.85780 | 32238 ft | 471 kts | 51° |
| 2026-05-08 20:24 | 52.82423 | -115.81284 | 31450 ft | 472 kts | 51° |
| 2026-05-08 20:25 | 52.84235 | -115.76840 | 30649 ft | 473 kts | 51° |
| 2026-05-08 20:25 | 52.86072 | -115.72323 | 29812 ft | 474 kts | 51° |
| 2026-05-08 20:25 | 52.87902 | -115.67818 | 29181 ft | 470 kts | 51° |
| 2026-05-08 20:25 | 52.89715 | -115.63342 | 28586 ft | 466 kts | 51° |
| 2026-05-08 20:26 | 52.91494 | -115.58938 | 27977 ft | 462 kts | 51° |
| 2026-05-08 20:26 | 52.93278 | -115.54516 | 27336 ft | 459 kts | 51° |
| 2026-05-08 20:26 | 52.95029 | -115.50166 | 26701 ft | 456 kts | 51° |
| 2026-05-08 20:26 | 52.96784 | -115.45802 | 26063 ft | 452 kts | 51° |
| 2026-05-08 20:27 | 52.98506 | -115.41509 | 25425 ft | 449 kts | 51° |
| 2026-05-08 20:27 | 53.00242 | -115.37179 | 24783 ft | 446 kts | 51° |
| 2026-05-08 20:27 | 53.01936 | -115.32945 | 24143 ft | 442 kts | 52° |
| 2026-05-08 20:27 | 53.03622 | -115.28724 | 23510 ft | 439 kts | 52° |
| 2026-05-08 20:28 | 53.05283 | -115.24558 | 22888 ft | 435 kts | 52° |
| 2026-05-08 20:28 | 53.06950 | -115.20367 | 22254 ft | 431 kts | 52° |
| 2026-05-08 20:28 | 53.08588 | -115.16248 | 21631 ft | 428 kts | 52° |
| 2026-05-08 20:28 | 53.10202 | -115.12182 | 21012 ft | 424 kts | 52° |
| 2026-05-08 20:29 | 53.11830 | -115.08074 | 20383 ft | 421 kts | 52° |
| 2026-05-08 20:29 | 53.13407 | -115.04091 | 19766 ft | 417 kts | 52° |
| 2026-05-08 20:29 | 53.14983 | -115.00100 | 19142 ft | 414 kts | 52° |
| 2026-05-08 20:29 | 53.16569 | -114.96079 | 18506 ft | 410 kts | 52° |
| 2026-05-08 20:30 | 53.18119 | -114.92142 | 17887 ft | 407 kts | 52° |
| 2026-05-08 20:30 | 53.19657 | -114.88232 | 17306 ft | 402 kts | 52° |
| 2026-05-08 20:30 | 53.21170 | -114.84377 | 16702 ft | 398 kts | 52° |
| 2026-05-08 20:30 | 53.22659 | -114.80580 | 16101 ft | 395 kts | 52° |
| 2026-05-08 20:31 | 53.24165 | -114.76736 | 15490 ft | 391 kts | 52° |
| 2026-05-08 20:31 | 53.25608 | -114.72960 | 14892 ft | 388 kts | 55° |
| 2026-05-08 20:31 | 53.26820 | -114.68967 | 14279 ft | 389 kts | 64° |
| 2026-05-08 20:31 | 53.27493 | -114.64643 | 13681 ft | 391 kts | 78° |
| 2026-05-08 20:32 | 53.27741 | -114.60101 | 13051 ft | 390 kts | 83° |
| 2026-05-08 20:32 | 53.27844 | -114.55600 | 12439 ft | 388 kts | 85° |
| 2026-05-08 20:32 | 53.27902 | -114.51186 | 11835 ft | 385 kts | 85° |
| 2026-05-08 20:32 | 53.27956 | -114.46728 | 11218 ft | 381 kts | 85° |
| 2026-05-08 20:33 | 53.28018 | -114.42378 | 10711 ft | 375 kts | 85° |
| 2026-05-08 20:33 | 53.28089 | -114.38110 | 10465 ft | 354 kts | 85° |
| 2026-05-08 20:33 | 53.28160 | -114.34157 | 10357 ft | 331 kts | 85° |
| 2026-05-08 20:33 | 53.28233 | -114.30437 | 10227 ft | 311 kts | 85° |
| 2026-05-08 20:34 | 53.28307 | -114.26941 | 10071 ft | 296 kts | 84° |
| 2026-05-08 20:34 | 53.28384 | -114.23531 | 9723 ft | 295 kts | 84° |
| 2026-05-08 20:34 | 53.28537 | -114.16740 | 8982 ft | 292 kts | 84° |
| 2026-05-08 20:35 | 53.28606 | -114.13390 | 8638 ft | 290 kts | 84° |
| 2026-05-08 20:35 | 53.28674 | -114.10044 | 8286 ft | 288 kts | 85° |
| 2026-05-08 20:35 | 53.28736 | -114.06728 | 8081 ft | 280 kts | 85° |
| 2026-05-08 20:35 | 53.28616 | -114.03565 | 7998 ft | 271 kts | 97° |
| 2026-05-08 20:36 | 53.27899 | -114.00736 | 7989 ft | 263 kts | 123° |
| 2026-05-08 20:36 | 53.26733 | -113.98402 | 7991 ft | 263 kts | 130° |
| 2026-05-08 20:36 | 53.25508 | -113.96176 | 7989 ft | 262 kts | 130° |
| 2026-05-08 20:36 | 53.24303 | -113.93896 | 7982 ft | 263 kts | 129° |
| 2026-05-08 20:37 | 53.23134 | -113.91584 | 7850 ft | 259 kts | 128° |
| 2026-05-08 20:37 | 53.21991 | -113.89275 | 7558 ft | 258 kts | 127° |
| 2026-05-08 20:37 | 53.20885 | -113.86961 | 7444 ft | 248 kts | 124° |
| 2026-05-08 20:37 | 53.19899 | -113.84634 | 7238 ft | 244 kts | 121° |
| 2026-05-08 20:38 | 53.18961 | -113.82301 | 6994 ft | 242 kts | 121° |
| 2026-05-08 20:38 | 53.18111 | -113.79932 | 6830 ft | 235 kts | 111° |
| 2026-05-08 20:38 | 53.17737 | -113.77375 | 6564 ft | 226 kts | 84° |
| 2026-05-08 20:38 | 53.18165 | -113.74944 | 6145 ft | 223 kts | 57° |
| 2026-05-08 20:39 | 53.19143 | -113.72932 | 5567 ft | 227 kts | 40° |
| 2026-05-08 20:39 | 53.20406 | -113.71369 | 4981 ft | 231 kts | 31° |
| 2026-05-08 20:39 | 53.21761 | -113.69964 | 4498 ft | 221 kts | 30° |
| 2026-05-08 20:39 | 53.22999 | -113.68656 | 4189 ft | 200 kts | 31° |
| 2026-05-08 20:40 | 53.24088 | -113.67464 | 3951 ft | 179 kts | 29° |
| 2026-05-08 20:40 | 53.25069 | -113.66357 | 3721 ft | 162 kts | 33° |
| 2026-05-08 20:40 | 53.25899 | -113.65241 | 3564 ft | 149 kts | 35° |
| 2026-05-08 20:40 | 53.26716 | -113.64171 | 3332 ft | 148 kts | 32° |
| 2026-05-08 20:41 | 53.27558 | -113.63211 | 3130 ft | 144 kts | 31° |
| 2026-05-08 20:41 | 53.28373 | -113.62336 | 2912 ft | 139 kts | 30° |
| 2026-05-08 20:41 | 53.29197 | -113.61440 | 2755 ft | 140 kts | 30° |
| 2026-05-08 20:41 | 53.30019 | -113.60573 | 2593 ft | 144 kts | 32° |
| 2026-05-08 20:42 | 53.30853 | -113.59643 | 2384 ft | 146 kts | 30° |
| 2026-05-08 20:42 | 53.31644 | -113.58737 | 2317 ft | 127 kts | 32° |
| 2026-05-08 20:42 | 53.32193 | -113.58100 | 2322 ft | 61 kts | 36° |
| 2026-05-08 20:42 | 53.32413 | -113.57841 | 2322 ft | 30 kts | 34° |
| 2026-05-08 20:43 | 53.32583 | -113.57641 | 2322 ft | 29 kts | 35° |
| 2026-05-08 20:43 | 53.32652 | -113.57454 | 2326 ft | 17 kts | 110° |
| 2026-05-08 20:43 | 53.32540 | -113.57376 | 2328 ft | 19 kts | 170° |
| 2026-05-08 20:43 | 53.32419 | -113.57423 | 2328 ft | 18 kts | 214° |
| 2026-05-08 20:44 | 53.32315 | -113.57547 | 2328 ft | 18 kts | 216° |
| 2026-05-08 20:44 | 53.32193 | -113.57689 | 2327 ft | 26 kts | 214° |
| 2026-05-08 20:44 | 53.32041 | -113.57867 | 2327 ft | 26 kts | 216° |
| 2026-05-08 20:44 | 53.31891 | -113.58041 | 2327 ft | 26 kts | 216° |
| 2026-05-08 20:45 | 53.31738 | -113.58215 | 2326 ft | 26 kts | 215° |
| 2026-05-08 20:45 | 53.31614 | -113.58362 | 2325 ft | 20 kts | 214° |
| 2026-05-08 20:45 | 53.31493 | -113.58506 | 2322 ft | 21 kts | 212° |
| 2026-05-08 20:45 | 53.31368 | -113.58649 | 2322 ft | 21 kts | 216° |
| 2026-05-08 20:46 | 53.31237 | -113.58807 | 2321 ft | 23 kts | 215° |
| 2026-05-08 20:46 | 53.31112 | -113.58929 | 2321 ft | 15 kts | 185° |
| 2026-05-08 20:46 | 53.31018 | -113.58817 | 2325 ft | 18 kts | 150° |
| 2026-05-08 20:46 | 53.30889 | -113.58793 | 2327 ft | 16 kts | 198° |
| 2026-05-08 20:47 | 53.30789 | -113.58885 | 2325 ft | 18 kts | 177° |
| 2026-05-08 20:47 | 53.30653 | -113.58868 | 2327 ft | 19 kts | 173° |
| 2026-05-08 20:47 | 53.30524 | -113.58851 | 2328 ft | 18 kts | 186° |
| 2026-05-08 20:47 | 53.30413 | -113.58733 | 2332 ft | 21 kts | 135° |
| 2026-05-08 20:48 | 53.30316 | -113.58568 | 2337 ft | 18 kts | 135° |
| 2026-05-08 20:48 | 53.30224 | -113.58415 | 2340 ft | 18 kts | 134° |
| 2026-05-08 20:48 | 53.30125 | -113.58246 | 2343 ft | 22 kts | 135° |
| 2026-05-08 20:48 | 53.30018 | -113.58070 | 2346 ft | 20 kts | 135° |
| 2026-05-08 20:49 | 53.29962 | -113.57935 | 2349 ft | 11 kts | 66° |
| 2026-05-08 20:49 | 53.30025 | -113.57825 | 2351 ft | 14 kts | 44° |
| 2026-05-08 20:49 | 53.30113 | -113.57863 | 2349 ft | 16 kts | 312° |
| 2026-05-08 20:49 | 53.30200 | -113.58005 | 2348 ft | 17 kts | 314° |
| 2026-05-08 20:50 | 53.30265 | -113.58112 | 2346 ft | 3 kts | 319° |
| 2026-05-08 20:50 | 53.30302 | -113.58089 | 2346 ft | 7 kts | 46° |
| 2026-05-08 20:50 | 53.30333 | -113.58038 | 2347 ft | 0 kts | 45° |
| 2026-05-08 20:50 | 53.30333 | -113.58037 | 2347 ft | 0 kts | 45° |